createdAt,value
2023-10-18T00:01:50.795Z,6.75
2023-10-18T00:04:23.846Z,7.50
2023-10-18T00:06:55.789Z,7.00
2023-10-18T00:09:42.270Z,7.47
2023-10-18T00:12:10.221Z,7.45
2023-10-18T00:14:40.427Z,7.43
2023-10-18T00:17:08.188Z,7.47
2023-10-18T00:19:36.320Z,7.38
2023-10-18T00:22:04.109Z,7.32
2023-10-18T00:24:32.100Z,7.47
2023-10-18T00:27:00.146Z,6.07
2023-10-18T00:29:27.882Z,5.38
2023-10-18T00:31:55.772Z,5.25
2023-10-18T00:34:23.683Z,4.88
2023-10-18T00:36:51.315Z,6.07
2023-10-18T00:39:33.907Z,5.75
2023-10-18T00:42:21.726Z,5.80
2023-10-18T00:44:59.138Z,5.32
2023-10-18T00:47:27.452Z,6.03
2023-10-18T00:49:55.272Z,6.40
2023-10-18T00:52:25.902Z,5.97
2023-10-18T00:54:54.928Z,6.13
2023-10-18T00:57:39.015Z,6.32
2023-10-18T01:00:14.124Z,5.57
2023-10-18T01:02:43.528Z,6.05
2023-10-18T01:05:17.228Z,6.55
2023-10-18T01:07:48.208Z,7.03
2023-10-18T01:10:18.375Z,6.25
2023-10-18T01:12:46.476Z,7.18
2023-10-18T01:15:20.707Z,6.20
2023-10-18T01:17:49.280Z,6.30
2023-10-18T01:20:34.908Z,6.47
2023-10-18T01:23:04.811Z,6.20
2023-10-18T01:25:32.642Z,6.63
2023-10-18T01:28:00.457Z,6.22
2023-10-18T01:30:30.540Z,6.00
2023-10-18T01:32:58.696Z,6.18
2023-10-18T01:35:26.315Z,5.68
2023-10-18T01:37:54.992Z,6.05
2023-10-18T01:40:24.290Z,7.70
2023-10-18T01:43:01.759Z,6.05
2023-10-18T01:45:38.522Z,6.20
2023-10-18T01:48:11.258Z,6.60
2023-10-18T01:50:40.688Z,6.00
2023-10-18T01:53:17.181Z,5.82
2023-10-18T01:55:58.484Z,5.75
2023-10-18T01:58:27.965Z,6.80
2023-10-18T02:00:58.376Z,6.22
2023-10-18T02:03:26.243Z,5.93
2023-10-18T02:05:54.166Z,4.95
2023-10-18T02:08:22.235Z,6.00
2023-10-18T02:10:51.663Z,6.47
2023-10-18T02:13:20.395Z,5.70
2023-10-18T02:15:49.702Z,5.82
2023-10-18T02:18:18.471Z,5.78
2023-10-18T02:20:53.145Z,5.55
2023-10-18T02:23:23.169Z,5.50
2023-10-18T02:25:51.316Z,6.57
2023-10-18T02:28:29.609Z,5.90
2023-10-18T02:30:59.478Z,6.25
2023-10-18T02:33:31.657Z,5.18
2023-10-18T02:35:59.316Z,6.07
2023-10-18T02:38:27.276Z,5.82
2023-10-18T02:40:58.116Z,8.07
2023-10-18T02:43:25.685Z,7.53
2023-10-18T02:45:53.902Z,7.50
2023-10-18T02:48:25.800Z,8.18
2023-10-18T02:50:55.381Z,9.25
2023-10-18T02:53:23.107Z,9.85
2023-10-18T02:55:59.561Z,8.75
2023-10-18T02:58:29.829Z,10.00
2023-10-18T03:01:04.351Z,9.63
2023-10-18T03:03:32.294Z,10.18
2023-10-18T03:06:07.017Z,9.60
2023-10-18T03:08:35.347Z,9.52
2023-10-18T03:11:05.277Z,9.55
2023-10-18T03:13:33.071Z,9.48
2023-10-18T03:16:07.529Z,10.48
2023-10-18T03:18:35.999Z,9.20
2023-10-18T03:21:07.108Z,9.88
2023-10-18T03:23:45.667Z,10.40
2023-10-18T03:26:13.695Z,9.93
2023-10-18T03:28:44.621Z,10.30
2023-10-18T03:31:35.376Z,11.13
2023-10-18T03:34:04.117Z,9.55
2023-10-18T03:36:46.393Z,10.90
2023-10-18T03:39:17.116Z,9.98
2023-10-18T03:41:51.406Z,10.90
2023-10-18T03:44:28.364Z,11.30
2023-10-18T03:47:06.453Z,12.80
2023-10-18T03:49:40.110Z,12.00
2023-10-18T03:54:46.650Z,12.35
2023-10-18T03:57:17.754Z,12.40
2023-10-18T03:59:46.661Z,11.82
2023-10-18T04:02:28.570Z,12.68
2023-10-18T04:04:59.866Z,10.80
2023-10-18T04:07:28.570Z,10.15
2023-10-18T04:10:13.420Z,10.77
2023-10-18T04:12:45.280Z,11.27
2023-10-18T04:15:23.475Z,11.10
2023-10-18T04:18:04.031Z,11.40
2023-10-18T04:20:34.843Z,11.50
2023-10-18T04:23:23.235Z,12.23
2023-10-18T04:26:04.982Z,11.45
2023-10-18T04:28:44.750Z,11.27
2023-10-18T04:31:23.071Z,11.13
2023-10-18T04:33:54.201Z,12.07
2023-10-18T04:36:23.035Z,10.60
2023-10-18T04:38:52.944Z,10.68
2023-10-18T04:41:25.371Z,10.63
2023-10-18T04:44:06.783Z,12.40
2023-10-18T04:46:39.138Z,10.43
2023-10-18T04:49:10.202Z,10.68
2023-10-18T04:51:40.924Z,10.88
2023-10-18T04:54:12.861Z,11.05
2023-10-18T04:56:43.580Z,12.05
2023-10-18T04:59:20.414Z,10.77
2023-10-18T05:01:55.431Z,11.50
2023-10-18T05:04:35.465Z,10.75
2023-10-18T05:07:12.137Z,11.63
2023-10-18T05:09:43.539Z,11.07
2023-10-18T05:12:22.362Z,13.02
2023-10-18T05:15:00.879Z,11.68
2023-10-18T05:17:37.171Z,11.38
2023-10-18T05:20:20.965Z,11.57
2023-10-18T05:22:54.368Z,12.02
2023-10-18T05:25:22.169Z,11.88
2023-10-18T05:28:16.451Z,11.63
2023-10-18T05:31:03.155Z,10.13
2023-10-18T05:33:40.362Z,10.48
2023-10-18T05:36:15.605Z,11.40
2023-10-18T05:38:53.347Z,11.07
2023-10-18T05:41:30.417Z,11.93
2023-10-18T05:44:02.187Z,11.82
2023-10-18T05:46:40.232Z,10.70
2023-10-18T05:49:26.736Z,11.05
2023-10-18T05:52:16.162Z,13.18
2023-10-18T05:54:47.822Z,11.20
2023-10-18T05:57:20.972Z,12.48
2023-10-18T05:59:50.329Z,12.85
2023-10-18T06:02:25.034Z,12.57
2023-10-18T06:04:56.474Z,13.23
2023-10-18T06:07:25.617Z,12.20
2023-10-18T06:09:58.996Z,11.65
2023-10-18T06:12:31.494Z,12.55
2023-10-18T06:15:14.438Z,12.73
2023-10-18T06:17:48.813Z,13.10
2023-10-18T06:20:29.538Z,12.82
2023-10-18T06:23:18.511Z,14.20
2023-10-18T06:25:46.771Z,11.65
2023-10-18T06:28:21.576Z,12.50
2023-10-18T06:30:55.064Z,12.05
2023-10-18T06:33:23.163Z,11.13
2023-10-18T06:35:54.964Z,12.20
2023-10-18T06:38:24.783Z,11.82
2023-10-18T06:41:06.106Z,11.85
2023-10-18T06:43:34.837Z,11.25
2023-10-18T06:46:05.636Z,10.35
2023-10-18T06:48:34.948Z,11.55
2023-10-18T06:51:08.090Z,12.07
2023-10-18T06:53:39.343Z,12.23
2023-10-18T06:56:20.898Z,11.57
2023-10-18T06:58:48.923Z,10.98
2023-10-18T07:01:21.504Z,11.93
2023-10-18T07:03:50.230Z,12.20
2023-10-18T07:06:25.759Z,11.25
2023-10-18T07:08:54.291Z,12.40
2023-10-18T07:11:31.424Z,11.95
2023-10-18T07:14:14.108Z,11.95
2023-10-18T07:16:43.732Z,13.02
2023-10-18T07:19:27.934Z,13.20
2023-10-18T07:21:58.254Z,13.48
2023-10-18T07:24:46.192Z,11.32
2023-10-18T07:27:16.979Z,11.25
2023-10-18T07:29:50.188Z,12.30
2023-10-18T07:32:22.010Z,12.35
2023-10-18T07:34:49.738Z,12.18
2023-10-18T07:37:26.523Z,11.10
2023-10-18T07:40:01.449Z,11.75
2023-10-18T07:42:36.045Z,12.43
2023-10-18T07:45:05.739Z,11.98
2023-10-18T07:47:33.721Z,11.82
2023-10-18T07:50:01.679Z,12.50
2023-10-18T07:52:29.580Z,12.15
2023-10-18T07:54:57.688Z,13.00
2023-10-18T07:57:34.880Z,13.38
2023-10-18T08:00:35.859Z,13.75
2023-10-18T08:03:06.692Z,14.00
2023-10-18T08:05:47.725Z,13.15
2023-10-18T08:08:15.388Z,11.98
2023-10-18T08:10:44.346Z,12.23
2023-10-18T08:13:17.609Z,11.77
2023-10-18T08:15:52.526Z,11.55
2023-10-18T08:18:23.239Z,11.48
2023-10-18T08:20:51.094Z,10.82
2023-10-18T08:23:27.543Z,11.65
2023-10-18T08:26:07.469Z,11.38
2023-10-18T08:28:47.256Z,10.68
2023-10-18T08:31:28.283Z,10.73
2023-10-18T08:33:57.512Z,10.48
2023-10-18T08:36:31.121Z,11.15
2023-10-18T08:39:03.032Z,10.15
2023-10-18T08:41:37.978Z,10.25
2023-10-18T08:44:10.075Z,9.93
2023-10-18T08:46:42.916Z,10.20
2023-10-18T08:49:14.549Z,11.30
2023-10-18T08:51:45.686Z,11.13
2023-10-18T08:54:23.539Z,9.80
2023-10-18T08:56:53.193Z,12.02
2023-10-18T08:59:21.565Z,10.68
2023-10-18T09:02:13.128Z,10.40
2023-10-18T09:04:46.016Z,10.25
2023-10-18T09:07:44.268Z,10.52
2023-10-18T09:10:35.053Z,9.70
2023-10-18T09:13:17.394Z,9.63
2023-10-18T09:16:01.320Z,10.30
2023-10-18T09:18:36.154Z,9.60
2023-10-18T09:21:19.638Z,10.00
2023-10-18T09:23:50.320Z,8.98
2023-10-18T09:26:27.579Z,9.73
2023-10-18T09:28:57.788Z,10.82
2023-10-18T09:31:25.897Z,10.98
2023-10-18T09:33:58.065Z,10.65
2023-10-18T09:36:28.493Z,10.20
2023-10-18T09:38:58.996Z,10.45
2023-10-18T09:41:32.732Z,10.50
2023-10-18T09:46:31.958Z,11.15
2023-10-18T09:49:01.334Z,10.45
2023-10-18T09:51:30.928Z,10.88
2023-10-18T09:53:58.994Z,11.20
2023-10-18T09:56:34.477Z,9.88
2023-10-18T09:59:09.673Z,10.45
2023-10-18T10:01:44.590Z,11.75
2023-10-18T10:04:16.316Z,10.57
2023-10-18T10:07:16.380Z,10.93
2023-10-18T10:09:47.991Z,12.02
2023-10-18T10:12:18.978Z,10.95
2023-10-18T10:14:48.861Z,10.48
2023-10-18T10:17:20.552Z,12.10
2023-10-18T10:19:53.926Z,12.18
2023-10-18T10:22:26.045Z,11.75
2023-10-18T10:25:25.619Z,12.80
2023-10-18T10:28:20.285Z,11.63
2023-10-18T10:30:48.421Z,11.57
2023-10-18T10:33:16.459Z,12.48
2023-10-18T10:35:47.983Z,11.82
2023-10-18T10:38:20.348Z,12.15
2023-10-18T10:40:50.056Z,14.10
2023-10-18T10:43:21.782Z,11.85
2023-10-18T10:45:49.803Z,12.02
2023-10-18T10:48:30.153Z,11.55
2023-10-18T10:51:34.229Z,11.23
2023-10-18T10:54:02.842Z,12.38
2023-10-18T10:56:36.522Z,11.77
2023-10-18T10:59:09.350Z,11.38
2023-10-18T11:01:41.369Z,11.73
2023-10-18T11:04:58.942Z,13.70
2023-10-18T11:07:29.419Z,12.23
2023-10-18T11:10:07.963Z,11.60
2023-10-18T11:12:35.935Z,11.95
2023-10-18T11:15:05.716Z,12.27
2023-10-18T11:17:37.279Z,11.90
2023-10-18T11:20:19.485Z,13.48
2023-10-18T11:22:49.222Z,13.32
2023-10-18T11:25:24.250Z,12.13
2023-10-18T11:27:52.233Z,13.02
2023-10-18T11:30:22.652Z,10.57
2023-10-18T11:32:52.516Z,11.02
2023-10-18T11:35:47.409Z,12.02
2023-10-18T11:38:21.045Z,11.95
2023-10-18T11:43:29.197Z,12.50
2023-10-18T11:46:08.122Z,11.40
2023-10-18T11:48:37.441Z,11.00
2023-10-18T11:51:07.596Z,11.10
2023-10-18T11:53:36.610Z,10.35
2023-10-18T11:56:13.069Z,9.57
2023-10-18T11:59:00.509Z,9.93
2023-10-18T12:01:34.109Z,10.18
2023-10-18T12:06:30.231Z,10.82
2023-10-18T12:09:13.405Z,11.43
2023-10-18T12:11:42.542Z,12.13
2023-10-18T12:14:10.201Z,10.38
2023-10-18T12:16:39.246Z,10.35
2023-10-18T12:19:08.508Z,11.95
2023-10-18T12:21:36.261Z,12.50
2023-10-18T12:24:11.663Z,11.93
2023-10-18T12:26:41.318Z,13.27
2023-10-18T12:29:16.890Z,13.27
2023-10-18T12:31:54.067Z,12.18
2023-10-18T12:34:30.229Z,12.93
2023-10-18T12:36:59.714Z,12.80
2023-10-18T12:39:27.574Z,12.23
2023-10-18T12:41:56.635Z,13.70
2023-10-18T12:44:26.770Z,16.17
2023-10-18T12:46:57.439Z,13.77
2023-10-18T12:49:25.281Z,14.63
2023-10-18T12:51:59.867Z,15.05
2023-10-18T12:54:37.968Z,15.10
2023-10-18T12:57:15.444Z,13.60
2023-10-18T13:00:09.506Z,14.45
2023-10-18T13:03:12.148Z,13.75
2023-10-18T13:05:44.970Z,14.23
2023-10-18T13:08:24.219Z,13.43
2023-10-18T13:11:11.031Z,14.85
2023-10-18T13:13:39.496Z,15.45
2023-10-18T13:16:14.778Z,14.40
2023-10-18T13:18:43.302Z,13.27
2023-10-18T13:21:13.132Z,13.70
2023-10-18T13:23:47.425Z,12.65
2023-10-18T13:26:21.797Z,12.88
2023-10-18T13:28:52.858Z,13.27
2023-10-18T13:31:24.234Z,15.27
2023-10-18T13:33:53.863Z,13.73
2023-10-18T13:36:23.173Z,15.88
2023-10-18T13:38:52.503Z,13.98
2023-10-18T13:41:20.597Z,13.80
2023-10-18T13:43:48.909Z,18.55
2023-10-18T13:46:24.628Z,22.65
2023-10-18T13:48:52.569Z,19.20
2023-10-18T13:51:21.106Z,19.95
2023-10-18T13:53:49.896Z,14.52
2023-10-18T13:56:19.442Z,15.07
2023-10-18T13:58:48.039Z,19.00
2023-10-18T14:01:20.221Z,17.80
2023-10-18T14:03:51.037Z,15.80
2023-10-18T14:06:20.216Z,14.93
2023-10-18T14:08:48.757Z,20.73
2023-10-18T14:11:19.123Z,21.02
2023-10-18T14:13:49.624Z,21.90
2023-10-18T14:16:20.299Z,19.98
2023-10-18T14:18:49.793Z,32.13
2023-10-18T14:21:17.478Z,15.80
2023-10-18T14:23:49.013Z,16.08
2023-10-18T14:26:18.596Z,21.23
2023-10-18T14:28:46.664Z,20.25
2023-10-18T14:31:16.419Z,24.45
2023-10-18T14:33:57.477Z,24.27
2023-10-18T14:36:33.850Z,20.73
2023-10-18T14:39:04.834Z,17.00
2023-10-18T14:41:33.952Z,29.83
2023-10-18T14:44:02.652Z,20.75
2023-10-18T14:46:32.294Z,32.20
2023-10-18T14:49:01.757Z,21.88
2023-10-18T14:51:30.378Z,26.67
2023-10-18T14:53:58.692Z,37.95
2023-10-18T14:56:26.481Z,22.58
2023-10-18T14:58:59.050Z,29.73
2023-10-18T15:01:27.043Z,18.13
2023-10-18T15:03:54.942Z,25.02
2023-10-18T15:06:25.598Z,19.75
2023-10-18T15:08:56.463Z,36.20
2023-10-18T15:11:24.376Z,28.35
2023-10-18T15:13:52.059Z,22.15
2023-10-18T15:16:20.456Z,23.83
2023-10-18T15:18:49.372Z,23.65
2023-10-18T15:21:18.797Z,17.77
2023-10-18T15:23:47.026Z,24.65
2023-10-18T15:26:18.267Z,18.40
2023-10-18T15:28:51.264Z,24.27
2023-10-18T15:31:19.787Z,19.98
2023-10-18T15:33:47.836Z,19.10
2023-10-18T15:36:25.123Z,18.55
2023-10-18T15:38:58.052Z,22.00
2023-10-18T15:41:27.190Z,23.13
2023-10-18T15:44:01.358Z,19.00
2023-10-18T15:46:34.831Z,20.40
2023-10-18T15:49:03.193Z,19.23
2023-10-18T15:51:33.210Z,21.83
2023-10-18T15:54:04.236Z,18.92
2023-10-18T15:56:34.777Z,20.37
2023-10-18T15:59:05.174Z,21.17
2023-10-18T16:01:46.591Z,21.05
2023-10-18T16:04:20.760Z,19.55
2023-10-18T16:06:50.552Z,22.40
2023-10-18T16:09:19.300Z,20.13
2023-10-18T16:11:47.221Z,20.88
2023-10-18T16:14:15.200Z,24.95
2023-10-18T16:16:43.277Z,25.40
2023-10-18T16:19:12.086Z,18.95
2023-10-18T16:21:43.219Z,23.17
2023-10-18T16:24:11.276Z,20.42
2023-10-18T16:26:38.950Z,21.00
2023-10-18T16:29:07.822Z,21.85
2023-10-18T16:31:37.265Z,23.33
2023-10-18T16:34:06.895Z,21.38
2023-10-18T16:36:39.227Z,23.23
2023-10-18T16:39:06.973Z,22.83
2023-10-18T16:41:34.989Z,23.23
2023-10-18T16:44:03.048Z,25.85
2023-10-18T16:46:31.954Z,24.40
2023-10-18T16:49:00.776Z,24.70
2023-10-18T16:51:29.385Z,26.45
2023-10-18T16:53:57.302Z,24.70
2023-10-18T16:56:26.992Z,23.20
2023-10-18T16:58:58.206Z,25.83
2023-10-18T17:01:26.543Z,24.13
2023-10-18T17:03:54.303Z,25.65
2023-10-18T17:06:22.803Z,24.85
2023-10-18T17:08:50.548Z,25.30
2023-10-18T17:11:19.634Z,25.52
2023-10-18T17:13:49.216Z,26.77
2023-10-18T17:16:18.846Z,27.52
2023-10-18T17:18:46.964Z,27.60
2023-10-18T17:21:20.141Z,27.00
2023-10-18T17:26:18.678Z,26.65
2023-10-18T17:28:50.534Z,26.67
2023-10-18T17:31:21.424Z,28.65
2023-10-18T17:33:51.033Z,28.38
2023-10-18T17:36:20.037Z,27.00
2023-10-18T17:38:48.434Z,26.90
2023-10-18T17:41:16.218Z,29.13
2023-10-18T17:43:44.462Z,28.27
2023-10-18T17:46:15.377Z,27.88
2023-10-18T17:48:44.017Z,27.13
2023-10-18T17:51:11.740Z,28.45
2023-10-18T17:53:39.839Z,29.70
2023-10-18T17:56:13.259Z,28.73
2023-10-18T17:58:42.915Z,28.33
2023-10-18T18:01:22.270Z,29.08
2023-10-18T18:03:53.708Z,27.17
2023-10-18T18:06:22.118Z,31.00
2023-10-18T18:08:50.717Z,27.13
2023-10-18T18:11:26.716Z,30.92
2023-10-18T18:13:54.750Z,29.48
2023-10-18T18:16:22.824Z,28.95
2023-10-18T18:18:52.798Z,30.63
2023-10-18T18:21:22.828Z,32.20
2023-10-18T18:23:53.467Z,32.20
2023-10-18T18:26:23.862Z,31.98
2023-10-18T18:28:52.237Z,31.63
2023-10-18T18:31:20.527Z,33.08
2023-10-18T18:33:50.703Z,32.85
2023-10-18T18:36:18.274Z,34.85
2023-10-18T18:38:45.910Z,32.17
2023-10-18T18:41:15.767Z,32.20
2023-10-18T18:43:43.889Z,35.10
2023-10-18T18:46:17.991Z,35.08
2023-10-18T18:48:52.256Z,34.58
2023-10-18T18:51:19.844Z,35.50
2023-10-18T18:53:47.574Z,36.00
2023-10-18T18:56:15.229Z,35.33
2023-10-18T18:58:42.959Z,35.13
2023-10-18T19:01:11.478Z,35.42
2023-10-18T19:03:39.195Z,34.80
2023-10-18T19:06:07.744Z,33.83
2023-10-18T19:08:35.281Z,34.08
2023-10-18T19:11:03.049Z,33.53
2023-10-18T19:13:30.794Z,35.55
2023-10-18T19:16:08.424Z,32.58
2023-10-18T19:18:36.581Z,34.88
2023-10-18T19:21:12.197Z,33.05
2023-10-18T19:23:40.082Z,37.28
2023-10-18T19:26:18.158Z,35.72
2023-10-18T19:28:47.775Z,38.60
2023-10-18T19:31:18.140Z,36.83
2023-10-18T19:33:48.057Z,37.47
2023-10-18T19:36:21.255Z,35.60
2023-10-18T19:38:50.154Z,35.70
2023-10-18T19:41:21.391Z,34.80
2023-10-18T19:43:50.593Z,35.40
2023-10-18T19:46:18.719Z,36.80
2023-10-18T19:48:48.843Z,36.75
2023-10-18T19:51:17.901Z,37.05
2023-10-18T19:53:46.457Z,36.85
2023-10-18T19:56:16.474Z,36.13
2023-10-18T19:58:45.351Z,35.42
2023-10-18T20:01:14.336Z,35.17
2023-10-18T20:03:43.082Z,34.15
2023-10-18T20:06:11.911Z,32.50
2023-10-18T20:08:41.670Z,35.45
2023-10-18T20:11:12.015Z,32.72
2023-10-18T20:13:40.971Z,33.55
2023-10-18T20:16:14.141Z,33.75
2023-10-18T20:18:43.568Z,31.80
2023-10-18T20:21:14.904Z,33.88
2023-10-18T20:23:43.116Z,31.00
2023-10-18T20:26:16.785Z,29.52
2023-10-18T20:28:44.970Z,32.03
2023-10-18T20:31:13.306Z,31.55
2023-10-18T20:33:41.718Z,30.85
2023-10-18T20:36:09.707Z,31.17
2023-10-18T20:38:38.175Z,32.15
2023-10-18T20:41:05.924Z,33.08
2023-10-18T20:43:37.269Z,33.38
2023-10-18T20:46:19.158Z,32.20
2023-10-18T20:48:50.859Z,31.52
2023-10-18T20:51:20.056Z,31.40
2023-10-18T20:56:23.383Z,30.88
2023-10-18T20:58:56.711Z,32.03
2023-10-18T21:01:36.031Z,34.25
2023-10-18T21:04:07.461Z,33.97
2023-10-18T21:06:39.903Z,35.45
2023-10-18T21:09:14.049Z,35.22
2023-10-18T21:11:45.285Z,34.08
2023-10-18T21:14:16.816Z,35.45
2023-10-18T21:16:46.455Z,35.25
2023-10-18T21:19:15.115Z,35.75
2023-10-18T21:21:43.334Z,37.33
2023-10-18T21:24:12.578Z,34.55
2023-10-18T21:26:41.452Z,37.60
2023-10-18T21:29:10.031Z,40.45
2023-10-18T21:31:38.878Z,44.45
2023-10-18T21:34:06.682Z,45.55
2023-10-18T21:36:37.548Z,42.42
2023-10-18T21:39:07.746Z,42.45
2023-10-18T21:41:36.372Z,43.05
2023-10-18T21:44:05.730Z,41.90
2023-10-18T21:46:36.915Z,44.42
2023-10-18T21:49:04.773Z,44.67
2023-10-18T21:51:32.712Z,44.00
2023-10-18T21:54:00.928Z,44.13
2023-10-18T21:56:29.338Z,40.00
2023-10-18T21:58:57.914Z,40.40
2023-10-18T22:01:40.795Z,38.83
2023-10-18T22:04:09.757Z,41.87
2023-10-18T22:06:40.524Z,37.72
2023-10-18T22:09:27.706Z,36.13
2023-10-18T22:11:55.604Z,37.05
2023-10-18T22:14:27.163Z,36.38
2023-10-18T22:16:56.045Z,38.50
2023-10-18T22:19:31.896Z,35.60
2023-10-18T22:22:13.534Z,36.58
2023-10-18T22:24:48.438Z,38.10
2023-10-18T22:27:27.722Z,36.05
2023-10-18T22:29:55.844Z,37.55
2023-10-18T22:32:34.710Z,37.97
2023-10-18T22:35:10.802Z,38.38
2023-10-18T22:37:43.436Z,39.38
2023-10-18T22:40:18.644Z,41.40
2023-10-18T22:42:51.005Z,39.55
2023-10-18T22:45:26.792Z,39.55
2023-10-18T22:48:08.237Z,41.47
2023-10-18T22:50:37.226Z,39.92
2023-10-18T22:53:18.604Z,39.75
2023-10-18T22:56:00.289Z,38.10
2023-10-18T22:58:33.123Z,39.90
2023-10-18T23:01:03.221Z,38.28
2023-10-18T23:03:33.896Z,38.60
2023-10-18T23:06:03.717Z,39.13
2023-10-18T23:08:38.457Z,38.80
2023-10-18T23:11:27.333Z,39.55
2023-10-18T23:13:56.728Z,38.67
2023-10-18T23:16:42.048Z,36.60
2023-10-18T23:19:31.242Z,35.95
2023-10-18T23:22:16.341Z,38.58
2023-10-18T23:24:49.342Z,39.83
2023-10-18T23:27:38.423Z,40.33
2023-10-18T23:30:32.900Z,39.17
2023-10-18T23:33:03.364Z,36.58
2023-10-18T23:35:47.085Z,37.13
2023-10-18T23:38:33.487Z,38.75
2023-10-18T23:41:12.108Z,37.72
2023-10-18T23:43:54.047Z,36.15
2023-10-18T23:46:49.115Z,36.90
2023-10-18T23:49:27.963Z,38.30
2023-10-18T23:51:57.267Z,41.00
2023-10-18T23:54:31.595Z,39.80
2023-10-18T23:57:11.945Z,41.88
2023-10-18T23:59:41.102Z,40.38
